VHHHVRMM

Guest
Details From VHHH - Hong Kong Intl
To VRMM - Male Intl
Flight Number -
Tags Generated
Created
Modified
Stats Distance 2,586 nm / 4,789 km
Max Altitude 0 ft / 0 m
Waypoints 5
Social Downloads 13
Likes 0
Share VATSIM

Download

Looking for another format? Having issues loading an existing format? Contact us
Advertisement - Login to hide

Notes

Generated

Route

VHHH VE MST MLE51 VRMM

ID Type Via Altitude Latitude Longitude Leg Dist Tot Dist Heading (true) Name
O VHHH APT - 0 ft / 0 m 22.29628˚ 113.89799˚ - 0 nm - -
VE NDB - 0 ft / 0 m 18.02528˚ 102.52444˚ 690 nm 690 nm 250° / 246° VIENTIANE NDB
MST VOR - 0 ft / 0 m 16.69869˚ 98.54211˚ 241 nm 932 nm 251° / 250° MAE SOT VOR-DME
MLE51 FIX - 0 ft / 0 m 4.26067˚ 73.60511˚ 1648 nm 2580 nm 246° / 241° -
O VRMM APT - 0 ft / 0 m 4.20629˚ 73.52889˚ 5 nm 2585 nm 234° / 234° -

Altitude Profile

Advertisement - Login to hide

Weather


0- 5 10 15 20 25 30 35+ Temperature / ° C

Clouds and Precipitation
Forecast for 2017-12-17 12:00 UTC. Updated 2 hours ago

Ground ~20,000 ft ~40,000 ft Winds

VHHH

Details ICAO VHHH (HKG)
Name Hong Kong Intl
Region Hong Kong
Timezone Unknown (UTC+0.0)
Stats Elevation 28 ft / 9 m (AMSL)
Location 22.308995° 113.914610°
Runways 2
Magnetic Variation 2.822° W

METAR

VHHH 170830Z 02013KT 9000 FEW035 SCT040 13/04 Q1026 NOSIG

Decode

TAF

TAF VHHH 170500Z 1706/1812 01010KT 9999 FEW035 SCT040 TX14/1706Z TX16/1806Z TN11/1723Z

Decode

Departure Runways

ID Width Length Bearing (true) Bearing (mag) Surface Threshold Offset Overrun Length
07L 197 ft / 60 m 12,457 ft / 3,797 m 70.79° 73.61° Asphalt 564 ft / 172 m 866 ft / 264 m
07R 197 ft / 60 m 12,458 ft / 3,797 m 70.79° 73.61° Asphalt 525 ft / 160 m 886 ft / 270 m
25L 197 ft / 60 m 12,458 ft / 3,797 m 250.80° 253.62° Asphalt 0 ft / 0 m 840 ft / 256 m
25R 197 ft / 60 m 12,457 ft / 3,797 m 250.80° 253.62° Asphalt 581 ft / 177 m 860 ft / 262 m

VRMM

Details ICAO VRMM (MLE)
Name MALE INTL
Region Maldives
Timezone Indian/Maldives (UTC+5.0)
Stats Elevation 6 ft / 2 m (AMSL)
Location 4.191832° 73.529128°
Runways 1
Magnetic Variation 2.834° W

METAR

VRMM 170800Z 11007KT 9999 -SHRA EW018 FEW019CB BKN270 30/24 Q1011 CB N NE S NOSIG

Decode

TAF

TAF VRMM 170500Z 1706/1812 10018KT 9999 FEW018 TEMPO 1706/1712 5000 -SHRA SCT016 FEW017CB

Decode

Destination Runways

ID Width Length Bearing (true) Bearing (mag) Surface Threshold Offset Overrun Length
18 148 ft / 45 m 10,556 ft / 3,218 m 179.06° 181.89° Asphalt 328 ft / 100 m 201 ft / 61 m
36 148 ft / 45 m 10,556 ft / 3,218 m 359.06° 1.89° Asphalt 952 ft / 290 m 238 ft / 73 m

Approach Navaids

Runway Type Ident Frequency Range Bearing (true) Bearing (mag) Slope Elevation
36 Localiser IML 108.70 MHz 18 nm / 33 km 359.58° 2.41° - 5 ft / 2 m (AMSL)
36 Glidescope IML 108.70 MHz 10 nm / 19 km 359.06° 1.89° 3.00° 5 ft / 2 m (AMSL)
36 DME IML 108.70 MHz 18 nm / 33 km - - - 22 ft / 7 m (AMSL)

Popular Alternatives